Time;durP1;ratioP1;P1;durP2;ratioP2;P2;SDS_P1;SDS_P2;PMS_P1;PMS_P2;Temp;Humidity;BMP_temperature;BMP_pressure;BME280_temperature;BME280_humidity;BME280_pressure;Samples;Min_cycle;Max_cycle;Signal;HPM_P1;HPM_P2
2021/01/08 00:01:41;;;;;;;1.80;1.10;;;20.70;49.50;;;;;;5015972;28;20045;-64
2021/01/08 00:04:07;;;;;;;2.42;1.30;;;20.70;49.50;;;;;;5003367;28;20040;-66
2021/01/08 00:06:33;;;;;;;1.70;1.08;;;20.70;49.60;;;;;;5005969;28;20037;-66
2021/01/08 00:08:59;;;;;;;1.58;1.02;;;20.70;49.60;;;;;;5017996;28;20041;-64
2021/01/08 00:11:25;;;;;;;2.47;1.10;;;20.70;49.50;;;;;;5006888;28;20029;-65
2021/01/08 00:13:50;;;;;;;1.95;1.27;;;20.70;49.60;;;;;;5004164;28;20030;-64
2021/01/08 00:16:16;;;;;;;1.65;1.00;;;20.70;49.60;;;;;;5016941;28;20050;-65
2021/01/08 00:18:45;;;;;;;2.03;1.25;;;20.70;49.60;;;;;;5007638;28;20665;-67
2021/01/08 00:21:12;;;;;;;1.23;1.00;;;20.60;49.60;;;;;;5007596;28;20026;-65
2021/01/08 00:23:37;;;;;;;1.63;1.10;;;20.60;49.60;;;;;;5015040;28;20030;-64
2021/01/08 00:26:03;;;;;;;2.00;1.20;;;20.60;49.60;;;;;;5006955;28;20453;-64
2021/01/08 00:28:29;;;;;;;1.40;0.90;;;20.60;49.70;;;;;;5013189;28;20938;-65
2021/01/08 00:30:54;;;;;;;1.58;1.02;;;20.60;49.70;;;;;;5009897;28;20057;-64
2021/01/08 00:33:20;;;;;;;1.83;1.20;;;20.60;49.80;;;;;;5007619;28;20424;-63
2021/01/08 00:35:45;;;;;;;1.60;1.10;;;20.60;49.80;;;;;;5006379;28;20128;-66
2021/01/08 00:38:11;;;;;;;1.52;1.08;;;20.60;49.70;;;;;;5022070;28;20068;-64
2021/01/08 00:40:37;;;;;;;2.13;1.10;;;20.60;49.70;;;;;;5022545;28;20032;-63
2021/01/08 00:43:03;;;;;;;2.28;1.00;;;20.60;49.70;;;;;;5022864;28;20031;-65
2021/01/08 00:45:29;;;;;;;1.75;1.10;;;20.60;49.70;;;;;;5017947;28;20037;-66
2021/01/08 00:47:56;;;;;;;1.42;1.00;;;20.60;49.80;;;;;;5007044;28;20045;-66
2021/01/08 00:50:21;;;;;;;2.03;1.20;;;20.60;49.70;;;;;;5017495;28;20033;-67
2021/01/08 00:52:47;;;;;;;2.42;1.33;;;20.50;49.70;;;;;;5023250;28;20163;-63
2021/01/08 00:55:13;;;;;;;1.60;1.00;;;20.50;49.80;;;;;;5017501;28;20112;-64
2021/01/08 00:57:39;;;;;;;1.75;1.00;;;20.50;50.30;;;;;;5009910;28;20033;-67
2021/01/08 01:00:06;;;;;;;1.60;0.90;;;20.50;49.80;;;;;;5021673;28;20113;-64
2021/01/08 01:02:33;;;;;;;2.13;1.20;;;20.50;49.80;;;;;;5022990;28;20030;-66
2021/01/08 01:04:59;;;;;;;1.92;1.00;;;20.50;49.80;;;;;;5006768;28;20327;-63
2021/01/08 01:07:25;;;;;;;1.92;1.10;;;20.50;49.70;;;;;;5018575;28;20041;-65
2021/01/08 01:09:51;;;;;;;1.45;0.95;;;20.50;49.80;;;;;;5015193;28;20038;-66
2021/01/08 01:12:16;;;;;;;2.13;1.13;;;20.50;49.80;;;;;;5007335;28;20057;-65
2021/01/08 01:14:43;;;;;;;2.05;1.20;;;20.50;49.80;;;;;;5006809;28;20052;-65
2021/01/08 01:17:09;;;;;;;1.23;0.82;;;20.50;49.80;;;;;;5007689;28;20445;-65
2021/01/08 01:19:35;;;;;;;2.20;1.10;;;20.50;49.80;;;;;;5015758;28;20033;-66
2021/01/08 01:22:00;;;;;;;1.55;1.00;;;20.40;49.80;;;;;;5026701;28;20415;-64
2021/01/08 01:24:26;;;;;;;2.28;1.20;;;20.40;49.80;;;;;;5023911;28;20143;-66
2021/01/08 01:26:58;;;;;;;1.48;0.95;;;20.40;49.80;;;;;;5027965;28;20079;-63
2021/01/08 01:29:24;;;;;;;1.65;1.10;;;20.40;50.30;;;;;;5028158;28;20032;-63
2021/01/08 01:31:50;;;;;;;1.83;0.98;;;20.40;49.80;;;;;;5015068;28;20033;-64
2021/01/08 01:34:16;;;;;;;1.77;1.00;;;20.40;49.80;;;;;;5007940;28;20049;-65
2021/01/08 01:36:42;;;;;;;1.92;1.15;;;20.40;49.80;;;;;;5009426;28;20021;-64
2021/01/08 01:39:07;;;;;;;1.73;1.00;;;20.40;49.80;;;;;;5008869;28;20033;-64
2021/01/08 01:41:33;;;;;;;1.88;0.90;;;20.40;49.80;;;;;;5012223;28;20041;-63
2021/01/08 01:43:59;;;;;;;1.70;1.10;;;20.40;49.80;;;;;;5014128;28;20431;-64
2021/01/08 01:46:26;;;;;;;1.50;1.00;;;20.40;49.70;;;;;;5021280;28;20117;-65
2021/01/08 01:48:52;;;;;;;1.35;1.00;;;20.40;49.80;;;;;;5007174;28;20177;-63
2021/01/08 01:51:20;;;;;;;1.75;1.02;;;20.30;49.60;;;;;;5022765;28;20030;-63
2021/01/08 01:53:47;;;;;;;1.40;1.00;;;20.30;49.60;;;;;;5016915;28;20080;-65
2021/01/08 01:56:12;;;;;;;1.48;0.88;;;20.30;49.70;;;;;;5008627;28;20044;-64
2021/01/08 01:58:38;;;;;;;1.60;0.82;;;20.30;49.70;;;;;;5016392;28;20026;-66
2021/01/08 02:01:04;;;;;;;1.52;1.00;;;20.30;49.70;;;;;;5008622;28;20018;-63
2021/01/08 02:03:39;;;;;;;1.63;1.00;;;20.30;49.60;;;;;;5007143;28;20026;-66
2021/01/08 02:06:09;;;;;;;1.05;0.80;;;20.30;49.60;;;;;;5007843;28;20030;-64
2021/01/08 02:08:37;;;;;;;1.17;0.90;;;20.30;49.60;;;;;;5010429;28;20143;-65
2021/01/08 02:11:15;;;;;;;1.55;1.00;;;20.30;49.60;;;;;;5020070;28;20601;-64
2021/01/08 02:14:05;;;;;;;1.70;1.10;;;20.30;49.60;;;;;;5024448;28;20030;-63
2021/01/08 02:16:37;;;;;;;1.33;1.00;;;20.30;49.60;;;;;;5008409;28;20304;-63
2021/01/08 02:19:07;;;;;;;1.65;1.00;;;20.30;49.60;;;;;;5009664;28;20405;-63
2021/01/08 02:21:52;;;;;;;1.40;1.00;;;20.30;49.60;;;;;;5011200;28;20044;-63
2021/01/08 02:24:25;;;;;;;2.13;1.10;;;20.30;49.60;;;;;;5043778;28;20041;-62
2021/01/08 02:26:51;;;;;;;1.67;0.98;;;20.20;49.50;;;;;;5009683;28;20064;-64
2021/01/08 02:29:17;;;;;;;1.58;1.02;;;20.20;49.60;;;;;;5016175;28;20055;-63
2021/01/08 02:31:43;;;;;;;2.30;1.10;;;20.20;49.60;;;;;;5026822;28;20045;-63
2021/01/08 02:34:09;;;;;;;1.55;1.00;;;20.20;49.60;;;;;;5024070;28;20326;-64
2021/01/08 02:36:42;;;;;;;1.48;0.98;;;20.20;49.60;;;;;;5009111;28;20044;-63
2021/01/08 02:39:10;;;;;;;1.52;0.90;;;20.20;49.60;;;;;;5011380;28;20091;-64
2021/01/08 02:41:36;;;;;;;1.50;1.00;;;20.20;49.60;;;;;;5027037;28;20108;-65
2021/01/08 02:44:03;;;;;;;1.00;0.80;;;20.20;49.60;;;;;;5020302;28;20029;-64
2021/01/08 02:46:29;;;;;;;2.40;1.00;;;20.20;49.60;;;;;;5013525;28;20095;-63
2021/01/08 02:48:55;;;;;;;1.10;0.85;;;20.20;49.60;;;;;;5013871;28;20021;-63
2021/01/08 02:51:20;;;;;;;1.27;0.80;;;20.20;49.60;;;;;;5025944;28;20033;-65
2021/01/08 02:53:48;;;;;;;1.50;0.90;;;20.20;49.60;;;;;;5022380;28;20502;-63
2021/01/08 02:56:18;;;;;;;1.83;0.90;;;20.20;49.60;;;;;;5011156;28;20038;-64
2021/01/08 02:58:44;;;;;;;1.05;0.90;;;20.20;49.70;;;;;;5006414;28;20046;-64
2021/01/08 03:01:12;;;;;;;1.50;1.00;;;20.20;49.70;;;;;;5022294;28;20136;-64
2021/01/08 03:03:38;;;;;;;1.30;0.98;;;20.10;49.60;;;;;;5012557;28;20037;-64
2021/01/08 03:06:06;;;;;;;1.75;1.10;;;20.10;50.20;;;;;;5008335;28;20077;-62
2021/01/08 03:08:32;;;;;;;1.42;0.90;;;20.10;49.70;;;;;;5008585;28;20152;-64
2021/01/08 03:10:58;;;;;;;1.90;1.10;;;20.10;50.20;;;;;;5007119;28;20145;-62
2021/01/08 03:13:25;;;;;;;1.58;1.00;;;20.10;49.70;;;;;;5015201;28;20029;-63
2021/01/08 03:15:51;;;;;;;1.80;1.10;;;20.10;49.70;;;;;;5025674;28;20544;-67
2021/01/08 03:18:17;;;;;;;1.40;1.10;;;20.10;49.70;;;;;;5023496;28;20121;-62
2021/01/08 03:20:42;;;;;;;1.45;1.05;;;20.10;49.70;;;;;;5006195;28;20358;-63
2021/01/08 03:23:08;;;;;;;1.70;1.02;;;20.10;49.70;;;;;;5012512;28;20026;-63
2021/01/08 03:25:34;;;;;;;1.60;1.00;;;20.10;49.80;;;;;;5025724;28;20030;-65
2021/01/08 03:28:00;;;;;;;1.25;0.90;;;20.10;49.80;;;;;;5007673;28;20029;-63
2021/01/08 03:30:26;;;;;;;1.80;1.13;;;20.10;49.80;;;;;;5009154;28;20475;-65
2021/01/08 03:32:51;;;;;;;1.20;0.93;;;20.00;49.70;;;;;;5005374;28;20041;-64
2021/01/08 03:35:19;;;;;;;1.70;0.90;;;20.00;49.70;;;;;;5013885;28;20049;-64
2021/01/08 03:37:45;;;;;;;1.60;1.00;;;20.00;49.70;;;;;;5007034;28;20045;-62
2021/01/08 03:40:10;;;;;;;1.25;0.90;;;20.00;49.70;;;;;;5007452;28;20136;-64
2021/01/08 03:42:36;;;;;;;1.23;0.90;;;20.00;49.80;;;;;;5007389;28;20041;-64
2021/01/08 03:45:03;;;;;;;1.30;1.00;;;20.00;49.70;;;;;;5020832;28;20029;-64
2021/01/08 03:47:29;;;;;;;1.65;1.02;;;20.00;49.70;;;;;;5015826;28;20033;-65
2021/01/08 03:49:54;;;;;;;1.33;1.00;;;20.00;49.80;;;;;;5006782;28;20037;-65
2021/01/08 03:52:20;;;;;;;1.63;0.95;;;20.00;49.70;;;;;;5012031;28;20029;-63
2021/01/08 03:54:45;;;;;;;1.60;1.10;;;20.00;49.80;;;;;;5021840;28;20109;-64
2021/01/08 03:57:11;;;;;;;1.65;1.00;;;20.00;49.80;;;;;;5018428;28;20373;-63
2021/01/08 03:59:37;;;;;;;1.77;1.10;;;20.00;49.80;;;;;;5010360;28;20106;-63
2021/01/08 04:02:03;;;;;;;1.27;0.80;;;20.00;49.80;;;;;;5011143;28;20026;-65
2021/01/08 04:04:28;;;;;;;1.17;0.90;;;20.00;49.80;;;;;;5009925;28;20497;-66
2021/01/08 04:06:54;;;;;;;1.30;1.00;;;19.90;49.80;;;;;;5011366;28;20085;-65
2021/01/08 04:09:20;;;;;;;1.58;1.00;;;19.90;49.80;;;;;;5014170;28;20578;-64
2021/01/08 04:11:46;;;;;;;1.30;0.90;;;19.90;49.80;;;;;;5010790;28;20042;-66
2021/01/08 04:14:12;;;;;;;1.50;1.00;;;19.90;49.80;;;;;;5012481;28;20030;-63
2021/01/08 04:16:40;;;;;;;1.20;0.88;;;19.90;49.80;;;;;;5014578;28;20101;-64
2021/01/08 04:19:07;;;;;;;2.47;1.00;;;19.90;49.80;;;;;;5008975;28;20032;-64
2021/01/08 04:21:33;;;;;;;1.10;0.80;;;19.90;49.80;;;;;;5010699;28;20047;-64
2021/01/08 04:23:59;;;;;;;1.33;1.00;;;19.90;49.80;;;;;;5022222;28;20435;-65
2021/01/08 04:26:24;;;;;;;1.45;0.90;;;19.90;49.80;;;;;;5025851;28;20022;-67
2021/01/08 04:28:50;;;;;;;1.50;1.00;;;19.90;49.80;;;;;;5010515;28;20057;-65
2021/01/08 04:31:17;;;;;;;1.05;0.85;;;19.90;49.80;;;;;;5020361;28;20102;-65
2021/01/08 04:33:43;;;;;;;1.60;0.90;;;19.90;49.80;;;;;;5014628;28;20038;-63
2021/01/08 04:36:10;;;;;;;1.40;0.90;;;19.90;49.80;;;;;;5011107;28;20041;-66
2021/01/08 04:38:39;;;;;;;1.30;0.90;;;19.90;49.80;;;;;;5009981;28;20415;-66
2021/01/08 04:41:08;;;;;;;1.15;0.90;;;19.90;49.80;;;;;;5010892;28;20030;-64
2021/01/08 04:43:35;;;;;;;1.10;0.88;;;19.90;49.80;;;;;;5008772;28;20034;-66
2021/01/08 04:46:17;;;;;;;1.60;1.05;;;19.90;49.80;;;;;;5029721;28;20178;-63
2021/01/08 04:48:43;;;;;;;1.35;0.90;;;19.90;49.80;;;;;;5023021;28;20116;-64
2021/01/08 04:51:11;;;;;;;1.20;0.90;;;19.90;49.80;;;;;;5022028;28;20440;-65
2021/01/08 04:53:37;;;;;;;1.90;0.90;;;19.90;49.90;;;;;;5024395;28;20083;-65
2021/01/08 04:56:07;;;;;;;1.40;1.00;;;19.90;49.90;;;;;;5010586;28;20045;-63
2021/01/08 04:58:33;;;;;;;1.52;0.90;;;19.90;49.80;;;;;;5006368;28;20037;-64
2021/01/08 05:01:01;;;;;;;1.63;0.90;;;19.90;49.90;;;;;;5010528;28;20083;-65
2021/01/08 05:03:28;;;;;;;1.48;0.95;;;19.90;49.80;;;;;;5009501;28;20022;-66
2021/01/08 05:05:54;;;;;;;1.33;0.95;;;19.90;49.90;;;;;;5009253;28;20465;-63
2021/01/08 05:08:20;;;;;;;1.38;0.98;;;19.90;49.80;;;;;;5015102;28;20120;-65
2021/01/08 05:10:46;;;;;;;1.10;0.80;;;19.90;49.80;;;;;;5010107;28;20144;-64
2021/01/08 05:13:12;;;;;;;1.38;0.98;;;19.90;49.90;;;;;;5009499;28;20091;-64
2021/01/08 05:15:40;;;;;;;1.70;1.08;;;19.80;49.80;;;;;;5008775;28;20041;-64
2021/01/08 05:18:06;;;;;;;1.65;1.00;;;19.90;49.90;;;;;;5008996;28;20136;-63
2021/01/08 05:20:32;;;;;;;2.22;1.05;;;19.90;49.90;;;;;;5023904;28;20058;-63
2021/01/08 05:22:59;;;;;;;1.50;0.90;;;19.90;49.90;;;;;;5010782;28;20037;-63
2021/01/08 05:25:25;;;;;;;1.20;0.90;;;19.80;49.80;;;;;;5010057;28;20033;-64
2021/01/08 05:27:51;;;;;;;1.40;1.00;;;19.80;49.80;;;;;;5012078;28;20060;-65
2021/01/08 05:30:27;;;;;;;1.30;0.90;;;19.90;49.90;;;;;;5007906;28;20092;-64
2021/01/08 05:32:56;;;;;;;1.60;1.00;;;19.80;49.80;;;;;;5008861;28;20049;-65
2021/01/08 05:35:23;;;;;;;1.50;0.98;;;19.80;49.80;;;;;;5009985;28;20033;-64
2021/01/08 05:37:51;;;;;;;1.40;0.90;;;19.80;50.40;;;;;;5023212;28;20029;-64
2021/01/08 05:40:24;;;;;;;1.20;0.90;;;19.90;49.90;;;;;;5010742;28;20033;-63
2021/01/08 05:42:58;;;;;;;1.42;1.00;;;19.80;49.80;;;;;;5015387;28;20037;-65
2021/01/08 05:45:25;;;;;;;2.13;1.00;;;19.80;49.90;;;;;;5023129;28;20033;-63
2021/01/08 05:47:52;;;;;;;1.20;1.00;;;19.80;49.90;;;;;;5011347;28;20042;-64
2021/01/08 05:50:21;;;;;;;1.75;1.10;;;19.80;49.80;;;;;;5007730;28;20115;-63
2021/01/08 05:52:50;;;;;;;0.98;0.80;;;19.80;49.90;;;;;;5010548;28;20025;-64
2021/01/08 05:55:15;;;;;;;0.90;0.80;;;19.80;49.90;;;;;;5014406;28;20520;-62
2021/01/08 05:57:41;;;;;;;1.42;0.90;;;19.80;49.90;;;;;;5007582;28;20085;-64
2021/01/08 06:00:08;;;;;;;1.00;0.80;;;19.80;49.90;;;;;;5018813;28;20437;-64
2021/01/08 06:02:35;;;;;;;1.30;1.00;;;19.80;49.90;;;;;;5011062;28;20036;-63
2021/01/08 06:05:04;;;;;;;0.95;0.80;;;19.80;49.90;;;;;;5012568;28;20096;-63
2021/01/08 06:07:36;;;;;;;1.55;0.98;;;19.80;49.90;;;;;;5006635;28;20688;-66
2021/01/08 06:10:03;;;;;;;1.50;0.85;;;19.80;49.90;;;;;;5007068;28;20375;-62
2021/01/08 06:12:42;;;;;;;1.23;0.95;;;19.80;49.90;;;;;;5015016;28;20707;-63
2021/01/08 06:15:11;;;;;;;1.17;0.90;;;19.80;49.90;;;;;;5021149;28;20416;-65
2021/01/08 06:17:38;;;;;;;1.02;0.80;;;19.80;49.90;;;;;;5010642;28;20790;-62
2021/01/08 06:20:07;;;;;;;1.00;0.80;;;19.80;49.90;;;;;;5013259;28;20034;-63
2021/01/08 06:22:39;;;;;;;0.98;0.80;;;19.80;49.90;;;;;;5010731;28;20050;-64
2021/01/08 06:25:10;;;;;;;1.40;1.00;;;19.80;49.90;;;;;;5009082;28;20029;-66
2021/01/08 06:27:36;;;;;;;1.50;1.10;;;19.80;49.90;;;;;;5013230;28;20537;-63
2021/01/08 06:30:07;;;;;;;1.02;0.90;;;19.80;49.90;;;;;;5018126;28;20041;-64
2021/01/08 06:32:33;;;;;;;1.40;1.00;;;19.80;49.90;;;;;;5005838;28;20426;-65
2021/01/08 06:35:07;;;;;;;0.80;0.80;;;19.70;49.90;;;;;;5009399;28;20037;-64
2021/01/08 06:37:41;;;;;;;1.10;0.80;;;19.80;49.90;;;;;;5008319;28;20029;-66
2021/01/08 06:40:11;;;;;;;1.58;0.90;;;19.80;49.90;;;;;;5018677;28;20028;-63
2021/01/08 06:42:44;;;;;;;1.60;0.98;;;19.70;49.90;;;;;;5006815;28;20030;-63
2021/01/08 06:45:16;;;;;;;1.33;0.90;;;19.80;49.90;;;;;;5006898;28;20017;-64
2021/01/08 06:47:46;;;;;;;1.10;0.80;;;19.70;49.90;;;;;;5024550;28;20033;-65
2021/01/08 06:50:18;;;;;;;1.30;0.95;;;19.80;49.90;;;;;;5007042;28;20053;-63
2021/01/08 06:52:48;;;;;;;1.20;0.80;;;19.80;49.90;;;;;;5007674;28;20076;-64
2021/01/08 06:55:19;;;;;;;1.13;0.70;;;19.80;49.90;;;;;;5019847;28;20084;-64
2021/01/08 06:57:54;;;;;;;1.23;0.90;;;19.80;49.90;;;;;;5009988;28;20543;-65
2021/01/08 07:00:30;;;;;;;1.20;0.82;;;19.80;49.90;;;;;;5019566;28;20353;-64
2021/01/08 07:03:03;;;;;;;1.23;0.88;;;19.80;49.90;;;;;;5027110;28;20025;-65
2021/01/08 07:05:29;;;;;;;1.23;0.80;;;19.70;49.90;;;;;;5019367;28;20061;-63
2021/01/08 07:07:55;;;;;;;1.00;0.80;;;19.70;49.90;;;;;;5005566;28;20038;-63
2021/01/08 07:10:21;;;;;;;1.30;0.80;;;19.70;49.90;;;;;;5003933;28;20457;-66
2021/01/08 07:12:53;;;;;;;0.90;0.80;;;19.70;49.90;;;;;;5009784;28;20485;-63
2021/01/08 07:15:19;;;;;;;1.35;0.80;;;19.70;49.90;;;;;;5005003;28;20064;-63
2021/01/08 07:17:57;;;;;;;1.00;0.70;;;19.70;49.90;;;;;;5012597;28;20515;-65
2021/01/08 07:20:23;;;;;;;1.13;0.80;;;19.70;49.90;;;;;;5005437;28;20180;-63
2021/01/08 07:22:55;;;;;;;1.08;0.90;;;19.70;49.90;;;;;;5007162;28;20403;-64
2021/01/08 07:25:23;;;;;;;1.02;0.80;;;19.70;49.90;;;;;;5017228;28;20446;-65
2021/01/08 07:27:50;;;;;;;1.23;0.90;;;19.70;49.90;;;;;;5022185;28;20017;-63
2021/01/08 07:30:17;;;;;;;1.15;0.90;;;19.70;49.90;;;;;;5006391;28;20034;-63
2021/01/08 07:32:51;;;;;;;0.82;0.73;;;19.70;49.90;;;;;;5023601;28;20038;-64
2021/01/08 07:35:32;;;;;;;1.08;0.80;;;19.70;49.90;;;;;;5021930;28;20030;-62
2021/01/08 07:38:09;;;;;;;1.50;0.82;;;19.70;49.90;;;;;;5022521;28;20037;-65
2021/01/08 07:40:37;;;;;;;1.33;0.90;;;19.70;49.90;;;;;;5006358;28;20113;-65
2021/01/08 07:43:11;;;;;;;1.23;0.90;;;19.70;49.90;;;;;;5007881;28;20034;-66
2021/01/08 07:45:56;;;;;;;1.00;0.80;;;19.70;49.90;;;;;;5016140;28;20022;-64
2021/01/08 07:48:38;;;;;;;1.00;0.80;;;19.70;49.90;;;;;;5012262;28;20026;-63
2021/01/08 07:51:06;;;;;;;0.88;0.80;;;19.70;49.90;;;;;;5006354;28;20469;-63
2021/01/08 07:53:41;;;;;;;1.30;0.80;;;19.70;49.90;;;;;;5010599;28;20049;-63
2021/01/08 07:56:12;;;;;;;1.00;0.80;;;19.70;49.90;;;;;;5016131;28;20032;-63
2021/01/08 07:58:37;;;;;;;1.20;0.90;;;19.70;49.90;;;;;;5006877;28;20030;-64
2021/01/08 08:01:05;;;;;;;1.50;0.90;;;19.70;49.90;;;;;;5012652;28;20310;-62
2021/01/08 08:03:31;;;;;;;1.13;0.85;;;19.70;49.90;;;;;;5017160;28;20064;-66
2021/01/08 08:05:59;;;;;;;1.55;1.00;;;19.70;49.90;;;;;;5017937;28;20432;-65
2021/01/08 08:08:25;;;;;;;1.00;0.80;;;19.70;49.90;;;;;;5015934;28;20136;-65
2021/01/08 08:10:51;;;;;;;1.63;0.80;;;19.70;49.90;;;;;;5024765;28;20049;-65
2021/01/08 08:13:26;;;;;;;1.60;1.10;;;19.70;49.90;;;;;;5013750;28;20083;-64
2021/01/08 08:15:51;;;;;;;1.27;0.90;;;19.60;49.90;;;;;;5007180;28;20107;-66
2021/01/08 08:18:17;;;;;;;1.00;0.80;;;19.70;49.90;;;;;;5018249;28;20393;-65
2021/01/08 08:20:43;;;;;;;1.70;1.00;;;19.70;49.90;;;;;;5007814;28;20056;-64
2021/01/08 08:23:15;;;;;;;1.50;1.00;;;19.70;49.90;;;;;;5008215;28;20064;-66
2021/01/08 08:25:42;;;;;;;1.35;0.90;;;19.60;49.90;;;;;;5017583;28;20048;-63
2021/01/08 08:28:08;;;;;;;1.30;0.90;;;19.60;49.80;;;;;;5008817;28;20083;-64
2021/01/08 08:30:34;;;;;;;1.10;1.00;;;19.70;49.90;;;;;;5005384;28;20646;-64
2021/01/08 08:33:03;;;;;;;1.20;0.90;;;19.60;49.80;;;;;;5020837;28;20080;-63
2021/01/08 08:35:28;;;;;;;1.80;1.03;;;19.60;49.80;;;;;;5008203;28;20082;-63
2021/01/08 08:37:57;;;;;;;1.20;1.00;;;19.60;50.40;;;;;;5017671;28;20532;-63
2021/01/08 08:40:26;;;;;;;1.60;1.20;;;19.60;49.80;;;;;;5017619;28;20034;-64
2021/01/08 08:42:59;;;;;;;1.85;1.25;;;19.60;49.90;;;;;;5022330;28;20018;-65
2021/01/08 08:45:33;;;;;;;1.30;1.05;;;19.60;49.80;;;;;;5024534;28;20026;-65
2021/01/08 08:48:06;;;;;;;1.33;1.00;;;19.60;49.80;;;;;;5027072;28;20033;-64
2021/01/08 08:50:41;;;;;;;1.45;1.17;;;19.60;49.80;;;;;;5024401;28;20469;-63
2021/01/08 08:53:14;;;;;;;2.08;1.20;;;19.60;49.90;;;;;;5024429;28;20464;-63
2021/01/08 08:55:41;;;;;;;1.60;1.20;;;19.60;49.80;;;;;;5016831;28;20087;-62
2021/01/08 08:58:09;;;;;;;2.00;1.27;;;19.60;49.80;;;;;;5027687;28;20427;-67
2021/01/08 09:00:43;;;;;;;1.92;1.20;;;19.60;49.80;;;;;;5017077;28;20033;-66
2021/01/08 09:03:19;;;;;;;1.83;1.30;;;19.60;49.80;;;;;;5023129;28;20034;-64
2021/01/08 09:05:46;;;;;;;1.42;1.05;;;19.60;49.80;;;;;;5008725;28;20080;-64
2021/01/08 09:08:24;;;;;;;2.00;1.30;;;19.60;49.90;;;;;;5010930;28;20032;-64
2021/01/08 09:11:03;;;;;;;2.05;1.20;;;19.60;49.90;;;;;;5009473;28;20147;-65
2021/01/08 09:13:59;;;;;;;1.30;1.10;;;19.60;49.90;;;;;;5023581;28;20034;-63
2021/01/08 09:16:31;;;;;;;1.92;1.42;;;19.60;49.90;;;;;;5027006;28;20047;-64
2021/01/08 09:19:07;;;;;;;2.20;1.45;;;19.60;49.90;;;;;;5022020;28;20040;-65
2021/01/08 09:21:49;;;;;;;2.22;1.33;;;19.60;49.90;;;;;;5009206;28;20034;-65
2021/01/08 09:24:28;;;;;;;2.00;1.40;;;19.60;49.90;;;;;;5014653;28;20524;-63
2021/01/08 09:27:01;;;;;;;2.03;1.40;;;19.60;49.90;;;;;;5028148;28;20032;-64
2021/01/08 09:29:32;;;;;;;2.65;1.60;;;19.60;49.90;;;;;;5022515;28;20099;-65
2021/01/08 09:31:58;;;;;;;2.40;1.48;;;19.60;50.00;;;;;;5012534;28;20037;-64
2021/01/08 09:34:25;;;;;;;2.00;1.40;;;19.60;50.00;;;;;;5028226;28;20034;-64
2021/01/08 09:36:52;;;;;;;2.15;1.38;;;19.60;50.00;;;;;;5015159;28;20033;-63
2021/01/08 09:39:19;;;;;;;2.03;1.27;;;19.60;50.00;;;;;;5009724;28;20129;-65
2021/01/08 09:41:53;;;;;;;2.10;1.38;;;19.60;50.00;;;;;;5007793;28;20406;-65
2021/01/08 09:44:19;;;;;;;2.10;1.50;;;19.60;50.00;;;;;;5015760;28;20025;-64
2021/01/08 09:46:59;;;;;;;2.00;1.40;;;19.60;50.00;;;;;;5020838;28;20121;-65
2021/01/08 09:49:25;;;;;;;;;;;19.60;50.00;;;;;;5016659;28;20166;-65
2021/01/08 09:52:01;;;;;;;2.50;1.50;;;19.50;50.00;;;;;;5008402;28;20051;-63
2021/01/08 09:54:50;;;;;;;1.83;1.20;;;19.60;50.00;;;;;;5010727;28;20048;-65
2021/01/08 09:57:27;;;;;;;2.05;1.38;;;19.60;50.00;;;;;;5016331;28;20124;-64
2021/01/08 09:59:54;;;;;;;1.83;1.33;;;19.50;50.00;;;;;;5008575;28;20501;-65
2021/01/08 10:02:39;;;;;;;1.95;1.30;;;19.60;50.10;;;;;;5009297;28;20117;-64
2021/01/08 10:05:07;;;;;;;2.28;1.52;;;19.50;50.00;;;;;;5017324;28;20040;-66
2021/01/08 10:07:41;;;;;;;2.20;1.40;;;19.60;50.00;;;;;;5018314;28;20030;-64
2021/01/08 10:10:11;;;;;;;2.47;1.50;;;19.50;50.00;;;;;;5012323;28;20033;-66
2021/01/08 10:12:47;;;;;;;2.15;1.55;;;19.50;50.00;;;;;;5019056;28;20034;-65
2021/01/08 10:15:14;;;;;;;2.65;1.70;;;19.50;50.00;;;;;;5013519;28;20076;-65
2021/01/08 10:17:47;;;;;;;2.30;1.60;;;19.50;50.00;;;;;;5013871;28;20544;-68
2021/01/08 10:20:15;;;;;;;2.45;1.80;;;19.50;50.00;;;;;;5016229;28;20052;-67
2021/01/08 10:22:51;;;;;;;2.03;1.60;;;19.50;50.50;;;;;;5010500;28;20044;-65
2021/01/08 10:25:28;;;;;;;2.38;1.30;;;19.50;50.00;;;;;;5020550;28;20508;-66
2021/01/08 10:28:07;;;;;;;2.22;1.70;;;19.50;50.10;;;;;;5024936;28;20079;-66
2021/01/08 10:30:33;;;;;;;2.03;1.30;;;19.50;50.00;;;;;;5014122;28;20048;-66
2021/01/08 10:32:59;;;;;;;2.13;1.50;;;19.50;50.60;;;;;;5024959;28;20396;-65
2021/01/08 10:35:25;;;;;;;2.50;1.60;;;19.50;50.10;;;;;;5009310;28;20030;-67
2021/01/08 10:37:50;;;;;;;2.72;1.70;;;19.50;50.10;;;;;;5023969;28;20072;-66
2021/01/08 10:40:16;;;;;;;2.03;1.50;;;19.50;50.00;;;;;;5014022;28;20029;-66
2021/01/08 10:42:41;;;;;;;2.30;1.65;;;19.50;50.10;;;;;;5027068;28;20480;-67
2021/01/08 10:45:07;;;;;;;2.75;1.75;;;19.50;50.10;;;;;;5021374;28;20139;-65
2021/01/08 10:47:33;;;;;;;2.83;1.90;;;19.50;50.00;;;;;;5022523;28;20068;-67
2021/01/08 10:50:01;;;;;;;2.80;1.80;;;19.50;50.00;;;;;;5006673;28;20057;-66
2021/01/08 10:52:27;;;;;;;2.60;1.60;;;19.50;50.60;;;;;;5008406;28;20025;-66
2021/01/08 10:54:53;;;;;;;3.08;1.95;;;19.50;50.00;;;;;;5026532;28;20111;-68
2021/01/08 10:57:19;;;;;;;2.78;1.95;;;19.50;50.00;;;;;;5022848;28;20037;-65
2021/01/08 10:59:45;;;;;;;2.55;1.67;;;19.50;50.00;;;;;;5011201;28;20068;-69
2021/01/08 11:02:11;;;;;;;2.15;1.70;;;19.50;50.00;;;;;;5008248;28;20030;-65
2021/01/08 11:04:41;;;;;;;2.75;1.92;;;19.50;50.00;;;;;;5006725;28;20121;-65
2021/01/08 11:07:07;;;;;;;;;;;19.50;50.00;;;;;;5013141;28;20185;-64
2021/01/08 11:09:32;;;;;;;2.92;1.88;;;19.50;50.00;;;;;;5027800;28;20645;-65
2021/01/08 11:11:58;;;;;;;2.60;1.70;;;19.50;50.00;;;;;;5015563;28;20707;-65
2021/01/08 11:14:23;;;;;;;3.10;1.80;;;19.50;49.90;;;;;;5007985;28;20025;-68
2021/01/08 11:16:49;;;;;;;2.65;1.70;;;19.50;50.00;;;;;;5016874;28;20369;-65
2021/01/08 11:19:15;;;;;;;3.33;1.77;;;19.50;49.90;;;;;;5013158;28;20037;-66
2021/01/08 11:21:40;;;;;;;3.25;1.77;;;19.50;50.00;;;;;;5016538;28;20018;-65
2021/01/08 11:24:06;;;;;;;2.65;1.90;;;19.50;50.50;;;;;;5013585;28;20045;-65
2021/01/08 11:26:32;;;;;;;2.72;1.70;;;19.50;49.90;;;;;;5013149;28;20077;-65
2021/01/08 11:28:58;;;;;;;2.78;1.80;;;19.50;49.90;;;;;;5017493;28;20029;-68
2021/01/08 11:31:50;;;;;;;2.92;1.92;;;19.50;50.00;;;;;;5017357;28;20053;-65
2021/01/08 11:34:15;;;;;;;2.47;1.70;;;19.50;50.00;;;;;;5004860;28;20065;-67
2021/01/08 11:36:41;;;;;;;4.22;2.08;;;19.50;50.00;;;;;;5012521;28;20057;-66
2021/01/08 11:39:07;;;;;;;3.03;1.70;;;19.50;50.00;;;;;;5008421;28;20456;-66
2021/01/08 11:41:32;;;;;;;3.40;2.00;;;19.50;50.00;;;;;;5016045;28;20112;-67
2021/01/08 11:43:58;;;;;;;3.90;1.90;;;19.50;50.00;;;;;;5022929;28;20187;-65
2021/01/08 11:46:24;;;;;;;2.97;1.90;;;19.50;50.00;;;;;;5011376;28;20042;-67
2021/01/08 11:48:52;;;;;;;2.90;1.70;;;19.50;50.00;;;;;;5012570;28;20030;-68
2021/01/08 11:51:19;;;;;;;3.28;2.08;;;19.50;50.00;;;;;;5012931;28;20029;-66
2021/01/08 11:53:48;;;;;;;2.80;1.80;;;19.50;50.10;;;;;;5008798;28;20480;-69
2021/01/08 11:56:15;;;;;;;3.75;1.92;;;19.50;50.10;;;;;;5017536;28;20037;-65
2021/01/08 11:58:44;;;;;;;3.58;2.08;;;19.50;50.10;;;;;;5008003;28;20090;-68
2021/01/08 12:01:11;;;;;;;3.88;2.40;;;19.50;50.60;;;;;;5018039;28;20130;-66
2021/01/08 12:03:38;;;;;;;3.58;2.35;;;19.50;50.90;;;;;;5023781;28;20464;-68
2021/01/08 12:06:08;;;;;;;4.35;2.33;;;19.70;51.10;;;;;;5008902;28;20125;-68
2021/01/08 12:08:36;;;;;;;4.45;2.30;;;19.80;50.40;;;;;;5016596;28;20113;-67
2021/01/08 12:11:02;;;;;;;3.90;2.40;;;20.00;50.00;;;;;;5013344;28;20053;-67
2021/01/08 12:13:28;;;;;;;7.10;2.60;;;20.10;49.80;;;;;;5008740;28;20038;-67
2021/01/08 12:15:54;;;;;;;5.95;2.30;;;20.20;49.40;;;;;;5016811;28;20036;-68
2021/01/08 12:18:19;;;;;;;4.53;2.60;;;20.40;49.30;;;;;;5014264;28;20408;-68
2021/01/08 12:20:45;;;;;;;5.28;2.40;;;20.50;49.00;;;;;;5011131;28;20022;-68
2021/01/08 12:23:11;;;;;;;4.13;2.30;;;20.60;48.80;;;;;;5017589;28;20087;-69
2021/01/08 12:25:38;;;;;;;5.00;2.42;;;20.70;48.50;;;;;;5015938;28;20036;-70
2021/01/08 12:28:11;;;;;;;3.65;2.40;;;20.80;48.30;;;;;;5027389;28;20076;-67
2021/01/08 12:30:37;;;;;;;4.57;2.40;;;20.90;48.10;;;;;;5014565;28;20080;-69
2021/01/08 12:33:04;;;;;;;3.72;2.33;;;21.00;47.80;;;;;;5018678;28;20056;-66
2021/01/08 12:35:31;;;;;;;3.25;2.00;;;21.10;47.60;;;;;;5013280;28;20057;-66
2021/01/08 12:37:57;;;;;;;4.25;2.05;;;21.20;47.50;;;;;;5014487;28;20029;-66
2021/01/08 12:40:23;;;;;;;3.97;2.08;;;21.10;47.50;;;;;;5010750;28;20056;-68
2021/01/08 12:42:52;;;;;;;3.75;2.22;;;21.00;47.70;;;;;;5008029;28;20053;-67
2021/01/08 12:45:18;;;;;;;4.85;2.60;;;21.10;48.00;;;;;;5020353;28;20026;-65
2021/01/08 12:47:45;;;;;;;4.40;2.40;;;21.20;47.50;;;;;;5008864;28;20124;-69
2021/01/08 12:50:11;;;;;;;4.45;2.50;;;21.30;47.40;;;;;;5014681;28;20591;-67
2021/01/08 12:52:36;;;;;;;5.78;2.30;;;21.50;47.10;;;;;;5014783;28;20032;-70
2021/01/08 12:55:02;;;;;;;3.25;2.08;;;21.60;46.90;;;;;;5019166;28;20033;-65